createdAt,value
2018-09-12T00:01:41.137Z,99.90
2018-09-12T00:05:45.447Z,99.90
2018-09-12T00:09:49.775Z,99.90
2018-09-12T00:13:54.166Z,99.90
2018-09-12T00:17:59.655Z,99.90
2018-09-12T00:22:03.991Z,99.90
2018-09-12T00:26:08.319Z,99.90
2018-09-12T00:30:12.806Z,99.90
2018-09-12T00:34:17.278Z,99.90
2018-09-12T00:38:21.480Z,99.90
2018-09-12T00:42:25.950Z,99.90
2018-09-12T00:46:30.278Z,99.90
2018-09-12T00:50:34.686Z,99.90
2018-09-12T00:54:38.981Z,99.90
2018-09-12T00:58:43.312Z,99.90
2018-09-12T01:02:47.517Z,99.90
2018-09-12T01:06:51.809Z,99.90
2018-09-12T01:10:56.109Z,99.90
2018-09-12T01:15:00.426Z,99.90
2018-09-12T01:19:05.013Z,99.90
2018-09-12T01:23:09.397Z,99.90
2018-09-12T01:27:13.613Z,99.90
2018-09-12T01:31:17.850Z,99.90
2018-09-12T01:35:22.565Z,99.90
2018-09-12T01:39:26.934Z,99.90
2018-09-12T01:43:31.222Z,99.90
2018-09-12T01:47:35.428Z,99.90
2018-09-12T01:51:39.777Z,99.90
2018-09-12T01:55:44.097Z,99.90
2018-09-12T01:59:48.430Z,99.90
2018-09-12T02:03:52.844Z,99.90
2018-09-12T02:07:57.157Z,99.90
2018-09-12T02:12:01.579Z,99.90
2018-09-12T02:16:05.780Z,99.90
2018-09-12T02:20:10.145Z,99.90
2018-09-12T02:24:14.456Z,99.90
2018-09-12T02:28:18.629Z,99.90
2018-09-12T02:32:23.356Z,99.90
2018-09-12T02:36:28.882Z,99.90
2018-09-12T02:40:33.485Z,99.90
2018-09-12T02:44:37.668Z,99.90
2018-09-12T02:48:42.056Z,99.90
2018-09-12T02:52:46.747Z,99.90
2018-09-12T02:56:51.321Z,99.90
2018-09-12T03:00:55.955Z,99.90
2018-09-12T03:05:00.483Z,99.90
2018-09-12T03:09:06.938Z,99.90
2018-09-12T03:13:11.535Z,99.90
2018-09-12T03:17:16.216Z,99.90
2018-09-12T03:21:20.657Z,99.90
2018-09-12T03:25:25.345Z,99.90
2018-09-12T03:29:29.921Z,99.90
2018-09-12T03:33:34.511Z,99.90
2018-09-12T03:37:39.055Z,99.90
2018-09-12T03:41:43.544Z,99.90
2018-09-12T03:45:48.461Z,99.90
2018-09-12T03:49:52.898Z,99.90
2018-09-12T03:53:57.400Z,99.90
2018-09-12T03:58:02.259Z,99.90
2018-09-12T04:02:06.728Z,99.90
2018-09-12T04:06:11.312Z,99.90
2018-09-12T04:10:15.886Z,99.90
2018-09-12T04:14:20.528Z,99.90
2018-09-12T04:18:25.154Z,99.90
2018-09-12T04:22:29.911Z,99.90
2018-09-12T04:26:35.014Z,99.90
2018-09-12T04:30:39.704Z,99.90
2018-09-12T04:34:44.387Z,99.90
2018-09-12T04:38:48.946Z,99.90
2018-09-12T04:42:53.656Z,99.90
2018-09-12T04:46:57.873Z,99.90
2018-09-12T04:51:02.227Z,99.90
2018-09-12T04:55:07.104Z,99.90
2018-09-12T04:59:11.731Z,99.90
2018-09-12T05:03:16.447Z,99.90
2018-09-12T05:07:22.128Z,99.90
2018-09-12T05:11:26.617Z,99.90
2018-09-12T05:15:31.184Z,99.90
2018-09-12T05:19:35.430Z,99.90
2018-09-12T05:23:39.632Z,99.90
2018-09-12T05:27:43.957Z,99.90
2018-09-12T05:31:48.461Z,99.90
2018-09-12T05:35:52.676Z,99.90
2018-09-12T05:39:56.943Z,99.90
2018-09-12T05:44:01.156Z,99.90
2018-09-12T05:48:05.643Z,99.90
2018-09-12T05:52:09.906Z,99.90
2018-09-12T05:56:14.280Z,99.90
2018-09-12T06:00:21.257Z,99.90
2018-09-12T06:04:25.939Z,99.90
2018-09-12T06:14:53.956Z,99.90
2018-09-12T06:18:58.650Z,99.90
2018-09-12T06:23:03.153Z,99.90
2018-09-12T06:27:07.394Z,99.90
2018-09-12T06:31:12.811Z,99.90
2018-09-12T06:35:17.088Z,99.90
2018-09-12T06:39:21.347Z,99.90
2018-09-12T06:43:25.660Z,99.90
2018-09-12T06:47:29.975Z,99.90
2018-09-12T06:51:34.340Z,99.90
2018-09-12T06:55:40.305Z,99.90
2018-09-12T06:59:45.050Z,99.90
2018-09-12T07:03:49.719Z,99.90
2018-09-12T07:07:55.106Z,99.90
2018-09-12T07:11:59.489Z,99.90
2018-09-12T07:16:03.769Z,99.90
2018-09-12T07:20:08.233Z,99.90
2018-09-12T07:24:12.514Z,97.80
2018-09-12T07:28:16.763Z,96.80
2018-09-12T07:32:20.977Z,94.20
2018-09-12T07:36:25.293Z,94.60
2018-09-12T07:40:29.518Z,92.50
2018-09-12T07:44:33.807Z,88.40
2018-09-12T07:48:38.113Z,89.70
2018-09-12T07:52:42.415Z,87.60
2018-09-12T07:56:46.658Z,83.30
2018-09-12T08:00:51.062Z,83.60
2018-09-12T08:04:55.293Z,82.50
2018-09-12T08:09:00.373Z,83.20
2018-09-12T08:13:05.249Z,84.40
2018-09-12T08:17:09.770Z,80.10
2018-09-12T08:21:14.179Z,74.10
2018-09-12T08:25:18.549Z,76.50
2018-09-12T08:29:22.835Z,77.80
2018-09-12T08:33:27.260Z,68.10
2018-09-12T08:37:31.694Z,62.90
2018-09-12T08:41:36.016Z,64.00
2018-09-12T08:45:40.669Z,69.00
2018-09-12T08:49:45.231Z,63.90
2018-09-12T08:53:49.543Z,63.00
2018-09-12T08:57:54.330Z,56.50
2018-09-12T09:01:58.577Z,52.30
2018-09-12T09:06:02.967Z,46.90
2018-09-12T09:10:07.223Z,46.90
2018-09-12T09:14:11.716Z,51.90
2018-09-12T09:18:16.428Z,47.00
2018-09-12T09:22:20.738Z,44.20
2018-09-12T09:26:24.945Z,43.60
2018-09-12T09:30:32.033Z,45.40
2018-09-12T09:34:36.268Z,46.50
2018-09-12T09:38:40.488Z,44.20
2018-09-12T09:42:44.792Z,44.30
2018-09-12T09:46:49.016Z,42.70
2018-09-12T09:50:53.270Z,43.20
2018-09-12T09:54:57.598Z,41.50
2018-09-12T09:59:01.855Z,41.20
2018-09-12T10:03:11.350Z,39.10
2018-09-12T10:07:22.614Z,39.40
2018-09-12T10:11:27.692Z,38.90
2018-09-12T10:15:32.674Z,38.90
2018-09-12T10:19:37.145Z,39.40
2018-09-12T10:23:41.760Z,36.50
2018-09-12T10:27:46.517Z,37.70
2018-09-12T10:31:50.837Z,35.70
2018-09-12T10:35:55.253Z,34.60
2018-09-12T10:39:59.456Z,34.40
2018-09-12T10:44:03.938Z,32.60
2018-09-12T10:48:08.680Z,32.10
2018-09-12T10:52:13.862Z,30.70
2018-09-12T10:56:18.620Z,30.30
2018-09-12T11:00:23.101Z,29.10
2018-09-12T11:04:28.270Z,28.70
2018-09-12T11:08:32.513Z,28.20
2018-09-12T11:12:36.779Z,28.10
2018-09-12T11:16:41.784Z,27.80
2018-09-12T11:20:46.324Z,27.60
2018-09-12T11:24:50.726Z,27.20
2018-09-12T11:28:55.216Z,25.70
2018-09-12T11:32:59.792Z,27.10
2018-09-12T11:37:04.297Z,24.50
2018-09-12T11:41:08.819Z,24.80
2018-09-12T11:45:13.143Z,25.40
2018-09-12T11:49:17.434Z,24.40
2018-09-12T11:53:21.736Z,22.80
2018-09-12T11:57:26.104Z,23.00
2018-09-12T12:01:30.696Z,22.20
2018-09-12T12:05:35.304Z,23.30
2018-09-12T12:09:39.665Z,23.10
2018-09-12T12:13:43.962Z,21.90
2018-09-12T12:17:49.784Z,22.30
2018-09-12T12:21:55.505Z,21.70
2018-09-12T12:26:00.813Z,23.30
2018-09-12T12:30:05.565Z,23.60
2018-09-12T12:34:09.996Z,24.20
2018-09-12T12:38:14.257Z,22.70
2018-09-12T12:42:18.801Z,21.60
2018-09-12T12:46:25.624Z,21.50
2018-09-12T12:50:32.575Z,21.40
2018-09-12T12:54:37.190Z,21.40
2018-09-12T12:58:41.522Z,19.40
2018-09-12T13:02:45.749Z,20.50
2018-09-12T13:06:50.439Z,21.80
2018-09-12T13:10:54.782Z,21.90
2018-09-12T13:14:59.222Z,23.20
2018-09-12T13:19:03.524Z,23.20
2018-09-12T13:23:07.869Z,23.60
2018-09-12T13:27:12.579Z,20.70
2018-09-12T13:31:17.190Z,20.40
2018-09-12T13:35:21.685Z,21.40
2018-09-12T13:39:25.957Z,21.90
2018-09-12T13:43:30.271Z,21.90
2018-09-12T13:47:34.502Z,23.50
2018-09-12T13:51:38.921Z,23.20
2018-09-12T13:55:43.188Z,23.50
2018-09-12T13:59:47.409Z,21.80
2018-09-12T14:03:51.684Z,22.90
2018-09-12T14:07:55.896Z,24.30
2018-09-12T14:12:00.878Z,25.50
2018-09-12T14:16:05.168Z,26.50
2018-09-12T14:20:09.453Z,29.70
2018-09-12T14:24:13.889Z,30.00
2018-09-12T14:28:18.143Z,27.70
2018-09-12T14:32:22.531Z,31.60
2018-09-12T14:36:26.705Z,29.10
2018-09-12T14:40:30.917Z,28.70
2018-09-12T14:44:35.192Z,32.70
2018-09-12T14:48:39.488Z,31.90
2018-09-12T14:52:43.697Z,37.70
2018-09-12T14:56:47.919Z,39.60
2018-09-12T15:00:54.173Z,40.50
2018-09-12T15:04:58.773Z,38.70
2018-09-12T15:09:02.950Z,39.30
2018-09-12T15:13:07.185Z,38.30
2018-09-12T15:17:11.412Z,41.10
2018-09-12T15:21:15.920Z,44.60
2018-09-12T15:25:20.193Z,46.40
2018-09-12T15:29:24.394Z,49.10
2018-09-12T15:33:29.098Z,51.20
2018-09-12T15:37:33.325Z,48.90
2018-09-12T15:41:37.601Z,52.30
2018-09-12T15:45:41.831Z,54.70
2018-09-12T15:49:46.040Z,58.30
2018-09-12T15:53:50.315Z,59.20
2018-09-12T15:57:54.588Z,60.00
2018-09-12T16:01:58.848Z,63.20
2018-09-12T16:06:03.068Z,63.80
2018-09-12T16:10:07.353Z,64.00
2018-09-12T16:14:11.619Z,66.40
2018-09-12T16:18:15.806Z,66.80
2018-09-12T16:22:20.059Z,68.20
2018-09-12T16:26:24.435Z,70.40
2018-09-12T16:30:28.629Z,70.90
2018-09-12T16:34:33.060Z,72.40
2018-09-12T16:38:37.913Z,75.20
2018-09-12T16:42:42.514Z,78.60
2018-09-12T16:46:49.568Z,79.50
2018-09-12T16:50:54.149Z,81.00
2018-09-12T16:54:58.541Z,81.50
2018-09-12T16:59:03.052Z,83.10
2018-09-12T17:03:07.612Z,83.00
2018-09-12T17:07:12.303Z,87.90
2018-09-12T17:11:17.073Z,88.80
2018-09-12T17:15:21.299Z,89.90
2018-09-12T17:19:25.598Z,91.10
2018-09-12T17:23:30.429Z,91.10
2018-09-12T17:27:34.965Z,91.40
2018-09-12T17:31:39.439Z,92.10
2018-09-12T17:35:43.757Z,93.10
2018-09-12T17:39:48.250Z,93.80
2018-09-12T17:43:52.628Z,94.20
2018-09-12T17:47:58.109Z,95.10
2018-09-12T17:52:03.316Z,95.80
2018-09-12T17:56:07.733Z,95.70
2018-09-12T18:00:11.988Z,96.30
2018-09-12T18:04:16.292Z,97.20
2018-09-12T18:08:20.472Z,97.40
2018-09-12T18:12:25.037Z,97.70
2018-09-12T18:16:29.315Z,97.80
2018-09-12T18:20:33.764Z,98.50
2018-09-12T18:24:38.062Z,98.60
2018-09-12T18:28:43.698Z,99.60
2018-09-12T18:32:48.204Z,99.90
2018-09-12T18:36:52.445Z,99.90
2018-09-12T18:40:56.978Z,99.90
2018-09-12T18:45:01.417Z,99.90
2018-09-12T18:49:06.041Z,99.90
2018-09-12T18:53:10.428Z,99.90
2018-09-12T18:57:14.770Z,99.90
2018-09-12T19:01:19.104Z,99.90
2018-09-12T19:05:23.320Z,99.90
2018-09-12T19:09:28.102Z,99.90
2018-09-12T19:13:32.762Z,99.90
2018-09-12T19:17:37.397Z,99.90
2018-09-12T19:21:41.982Z,99.90
2018-09-12T19:25:46.209Z,99.90
2018-09-12T19:29:50.459Z,99.90
2018-09-12T19:33:55.091Z,99.90
2018-09-12T19:37:59.626Z,99.90
2018-09-12T19:42:04.029Z,99.90
2018-09-12T19:46:08.282Z,99.90
2018-09-12T19:50:12.589Z,99.90
2018-09-12T19:54:16.902Z,99.90
2018-09-12T19:58:21.826Z,99.90
2018-09-12T20:02:30.070Z,99.90
2018-09-12T20:06:34.444Z,99.90
2018-09-12T20:10:39.809Z,99.90
2018-09-12T20:14:44.397Z,99.90
2018-09-12T20:18:49.161Z,99.90
2018-09-12T20:22:53.850Z,99.90
2018-09-12T20:26:58.555Z,99.90
2018-09-12T20:31:03.009Z,99.90
2018-09-12T20:35:07.505Z,99.90
2018-09-12T20:39:12.986Z,99.90
2018-09-12T20:43:17.533Z,99.90
2018-09-12T20:47:21.809Z,99.90
2018-09-12T20:51:26.149Z,99.90
2018-09-12T20:55:30.369Z,99.90
2018-09-12T20:59:34.708Z,99.90
2018-09-12T21:03:38.929Z,99.90
2018-09-12T21:07:43.149Z,99.90
2018-09-12T21:11:47.370Z,99.90
2018-09-12T21:15:51.798Z,99.90
2018-09-12T21:19:55.980Z,99.90
2018-09-12T21:24:00.397Z,99.90
2018-09-12T21:28:04.777Z,99.90
2018-09-12T21:32:09.168Z,99.90
2018-09-12T21:36:13.472Z,99.90
2018-09-12T21:40:17.926Z,99.90
2018-09-12T21:44:22.151Z,99.90
2018-09-12T21:48:26.604Z,99.90
2018-09-12T21:52:30.792Z,99.90
2018-09-12T21:56:35.011Z,99.90
2018-09-12T22:00:39.573Z,99.90
2018-09-12T22:04:43.751Z,99.90
2018-09-12T22:08:48.057Z,99.90
2018-09-12T22:12:52.367Z,99.90
2018-09-12T22:16:56.618Z,99.90
2018-09-12T22:21:00.805Z,99.90
2018-09-12T22:25:05.139Z,99.90
2018-09-12T22:29:09.449Z,99.90
2018-09-12T22:33:13.725Z,99.90
2018-09-12T22:37:17.940Z,99.90
2018-09-12T22:41:22.208Z,99.90
2018-09-12T22:45:26.385Z,99.90
2018-09-12T22:49:30.665Z,99.90
2018-09-12T22:53:34.847Z,99.90
2018-09-12T22:57:39.113Z,99.90
2018-09-12T23:01:43.328Z,99.90
2018-09-12T23:05:47.576Z,99.90
2018-09-12T23:09:52.111Z,99.90
2018-09-12T23:13:56.292Z,99.90
2018-09-12T23:18:00.843Z,99.90
2018-09-12T23:22:05.168Z,99.90
2018-09-12T23:26:09.563Z,99.90
2018-09-12T23:30:13.896Z,99.90
2018-09-12T23:34:18.172Z,99.90
2018-09-12T23:38:22.364Z,99.90
2018-09-12T23:42:26.727Z,99.90
2018-09-12T23:46:31.005Z,99.90
2018-09-12T23:50:35.355Z,99.90
2018-09-12T23:54:39.529Z,99.90
2018-09-12T23:58:43.829Z,99.90
